METAR (acronimo di METeorological Air Report) è un messaggio meteo emesso nella maggior parte dei casi in ambito aeroportuale

LIPF - Ferrara, It
Distanza dalla Stazione: 8 km
Ultimo Aggiornamento: Martedì 04 Agosto 2020 19:55 CEST
Dati non Recenti
Sereno
Sereno
 Wind from varies
Vento: variabile 0 km/h
Temperatura: 22°C
Punto di Rugiada: 16°C
Umidità: 69%
Barometro: 1007 hPa
Condizioni: Sereno
Visibilità: superiore a 10 km
2020/08/04 17:55 LIPF 041755Z /////KT CAVOK 22/16 Q1007
LIPE - Bologna Borgo Panigale, It
Distanza dalla Stazione: 46 km
Ultimo Aggiornamento: Martedì 04 Agosto 2020 21:20 CEST
Sereno
Sereno
 Wind from Sud-Ovest
Vento: Sud-Ovest 11 km/h
Temperatura: 19°C
Punto di Rugiada: 15°C
Umidità: 78%
Barometro: 1008 hPa
Condizioni: Sereno
Visibilità: superiore a 10 km
2020/08/04 19:20 LIPE 041920Z 23006KT CAVOK 19/15 Q1008
LIMF - Torino Caselle, It
Distanza dalla Stazione: 320 km
Ultimo Aggiornamento: Martedì 04 Agosto 2020 21:20 CEST
Parzialmente Nuvoloso
Parzialmente Nuvoloso
 Wind from varies
Vento: variabile 2 km/h
Temperatura: 24°C
Punto di Rugiada: 11°C
Umidità: 44%
Barometro: 1010 hPa
Nuvole: Parzialmente Nuvoloso
Visibilità: 10 km
Nuvole nel Dettaglio: Parzialmente Nuvoloso 2438 m
2020/08/04 19:20 LIMF 041920Z VRB01KT 9999 SCT080 24/11 Q1010
 
LIML - Milano Malpensa, It
Distanza dalla Stazione: 249 km
Ultimo Aggiornamento: Martedì 04 Agosto 2020 21:20 CEST
Sereno
Sereno
 Wind from Ovest-Sud-Ovest
Vento: Ovest-Sud-Ovest 7 km/h
Temperatura: 22°C
Punto di Rugiada: 13°C
Umidità: 57%
Barometro: 1009 hPa
Condizioni: Sereno
Visibilità: superiore a 10 km
2020/08/04 19:20 LIML 041920Z 24004KT 190V300 CAVOK 22/13 Q1009 NOSIG
LIME - Bergamo Orio al Serio, It
Distanza dalla Stazione: 181 km
Ultimo Aggiornamento: Martedì 04 Agosto 2020 21:20 CEST
Sereno
Sereno
 Wind from varies
Vento: variabile 4 km/h
Temperatura: 19°C
Punto di Rugiada: 15°C
Umidità: 78%
Barometro: 1009 hPa
Nuvole: Sereno
Visibilità: 10 km
2020/08/04 19:20 LIME 041920Z AUTO VRB02KT 9999 NCD 19/15 Q1009
LIPZ - Venezia Tessera, It
Distanza dalla Stazione: 93 km
Ultimo Aggiornamento: Martedì 04 Agosto 2020 21:20 CEST
Prevalentemente Nuvoloso
Prevalentemente Nuvoloso
 Wind from Nord-Ovest
Vento: Nord-Ovest 13 km/h
Temperatura: 19°C
Punto di Rugiada: 17°C
Umidità: 88%
Barometro: 1007 hPa
Nuvole: Prevalentemente Nuvoloso
Visibilità: 10 km
Nuvole nel Dettaglio: Parzialmente Nuvoloso 1219 m
Prevalentemente Nuvoloso 1829 m
2020/08/04 19:20 LIPZ 041920Z 31007KT 290V360 9999 SCT040 BKN060 19/17 Q1007 RETSRA NOSIG
 
LIVT - Trieste, It
Distanza dalla Stazione: 179 km
Ultimo Aggiornamento: Martedì 04 Agosto 2020 19:55 CEST
Dati non Recenti
Prevalentemente Nuvoloso
Prevalentemente Nuvoloso
 Wind from varies
Vento: variabile 0 km/h
Temperatura: 20°C
Punto di Rugiada: 17°C
Umidità: 83%
Barometro: 1006 hPa
Nuvole: Prevalentemente Nuvoloso
Visibilità: 10 km
Nuvole nel Dettaglio: Prevalentemente Nuvoloso 914 m
2020/08/04 17:55 LIVT 041755Z /////KT 9999 BKN030 20/17 Q1006 RMK OVC SCT060 QUK 0 QUL 0 VIS MAR 20 KM VIS MIN 9999
LIMJ - Genova, It
Distanza dalla Stazione: 229 km
Ultimo Aggiornamento: Martedì 04 Agosto 2020 21:20 CEST
Sereno
Sereno
 Wind from Nord
Vento: Nord 9 km/h
Temperatura: 26°C
Punto di Rugiada: 10°C
Umidità: 37%
Barometro: 1008 hPa
Condizioni: Sereno
Visibilità: superiore a 10 km
2020/08/04 19:20 LIMJ 041920Z 01005KT CAVOK 26/10 Q1008
LIRQ - Firenze Amerigo Vespucci, It
Distanza dalla Stazione: 119 km
Ultimo Aggiornamento: Martedì 04 Agosto 2020 21:20 CEST
Parzialmente Nuvoloso
Parzialmente Nuvoloso
 Wind from Nord
Vento: Nord 11 km/h
Temperatura: 21°C
Punto di Rugiada: 13°C
Umidità: 60%
Barometro: 1008 hPa
Nuvole: Parzialmente Nuvoloso
Visibilità: 10 km
Nuvole nel Dettaglio: Parzialmente Nuvoloso 2438 m
2020/08/04 19:20 LIRQ 041920Z 01006KT 330V030 9999 SCT080 21/13 Q1008
 
LIPY - Ancona, It
Distanza dalla Stazione: 189 km
Ultimo Aggiornamento: Martedì 04 Agosto 2020 21:20 CEST
Parzialmente Nuvoloso
Parzialmente Nuvoloso
 Wind from Ovest-Sud-Ovest
Vento: Ovest-Sud-Ovest 11 km/h
Temperatura: 19°C
Punto di Rugiada: 17°C
Umidità: 88%
Barometro: 1007 hPa
Nuvole: Parzialmente Nuvoloso
Visibilità: 10 km
Nuvole nel Dettaglio: Parzialmente Nuvoloso 6401 m
2020/08/04 19:20 LIPY 041920Z AUTO 24006KT 9999 SCT210/// 19/17 Q1007
LIBP - Pescara, It
Distanza dalla Stazione: 333 km
Ultimo Aggiornamento: Martedì 04 Agosto 2020 21:20 CEST
Prevalentemente Nuvoloso
Prevalentemente Nuvoloso
 Wind from Est
Vento: Est 19 km/h
Temperatura: 24°C
Punto di Rugiada: 15°C
Umidità: 57%
Barometro: 1006 hPa
Nuvole: Prevalentemente Nuvoloso
Visibilità: 10 km
Nuvole nel Dettaglio: Prevalentemente Nuvoloso 3658 m
Prevalentemente Nuvoloso 6401 m
2020/08/04 19:20 LIBP 041920Z AUTO 10010KT 9999 BKN120/// BKN210/// 24/15 Q1006
LIRF - Roma-Fiumicino, It
Distanza dalla Stazione: 334 km
Ultimo Aggiornamento: Martedì 04 Agosto 2020 21:20 CEST
Sereno
Sereno
 Wind from Ovest-Nord-Ovest
Vento: Ovest-Nord-Ovest 15 km/h
Temperatura: 24°C
Punto di Rugiada: 14°C
Umidità: 54%
Barometro: 1007 hPa
Condizioni: Sereno
Visibilità: superiore a 10 km
2020/08/04 19:20 LIRF 041920Z 29008KT CAVOK 24/14 Q1007 NOSIG
 
LIRN - Napoli Capodichino, It
Distanza dalla Stazione: 494 km
Ultimo Aggiornamento: Martedì 04 Agosto 2020 21:20 CEST
Sereno
Sereno
 Wind from Ovest-Sud-Ovest
Vento: Ovest-Sud-Ovest 9 km/h
Temperatura: 23°C
Punto di Rugiada: 14°C
Umidità: 57%
Barometro: 1008 hPa
Condizioni: Sereno
Visibilità: superiore a 10 km
2020/08/04 19:20 LIRN 041920Z 25005KT CAVOK 23/14 Q1008 NOSIG
LIBD - Bari Palese, It
Distanza dalla Stazione: 594 km
Ultimo Aggiornamento: Martedì 04 Agosto 2020 21:20 CEST
Sereno
Sereno
 Wind from Ovest
Vento: Ovest 7 km/h
Temperatura: 27°C
Punto di Rugiada: 7°C
Umidità: 28%
Barometro: 1006 hPa
Condizioni: Sereno
Visibilità: superiore a 10 km
2020/08/04 19:20 LIBD 041920Z 28004KT CAVOK 27/07 Q1006
LIBG - Taranto Grottaglie, It
Distanza dalla Stazione: 670 km
Ultimo Aggiornamento: Martedì 04 Agosto 2020 19:50 CEST
Dati non Recenti
Qualche Nuvola
Qualche Nuvola
 Wind from Sud
Vento: Sud 9 km/h
Temperatura: 27°C
Heat Index: 31°C
Punto di Rugiada: 24°C
Umidità: 84%
Barometro: 1006 hPa
Nuvole: Qualche Nuvola
Visibilità: 10 km
Nuvole nel Dettaglio: Qualche Nuvola 457 m
2020/08/04 17:50 LIBG 041750Z 19005KT 150V240 9999 FEW015 27/24 Q1006
 
LICR - Reggio Calabria, It
Distanza dalla Stazione: 819 km
Ultimo Aggiornamento: Martedì 04 Agosto 2020 20:50 CEST
Parzialmente Nuvoloso
Parzialmente Nuvoloso
 Wind from Nord
Vento: Nord 22 km/h
Temperatura: 28°C
Heat Index: 30°C
Punto di Rugiada: 22°C
Umidità: 70%
Barometro: 1008 hPa
Nuvole: Parzialmente Nuvoloso
Visibilità: 10 km
Nuvole nel Dettaglio: Parzialmente Nuvoloso 914 m
2020/08/04 18:50 LICR 041850Z 01012KT 9999 SCT030 28/22 Q1008
LICJ - Palermo Punta Raisi, It
Distanza dalla Stazione: 762 km
Ultimo Aggiornamento: Martedì 04 Agosto 2020 21:20 CEST
Sereno
Sereno
 Wind from Ovest
Vento: Ovest 24 km/h
Temperatura: 26°C
Punto di Rugiada: 21°C
Umidità: 74%
Barometro: 1010 hPa
Condizioni: Sereno
Visibilità: superiore a 10 km
2020/08/04 19:20 LICJ 041920Z 26013KT CAVOK 26/21 Q1010
LICC - Catania Fontanarossa, It
Distanza dalla Stazione: 866 km
Ultimo Aggiornamento: Martedì 04 Agosto 2020 21:20 CEST
Qualche Nuvola
Qualche Nuvola
 Wind from Sud-Sud-Est
Vento: Sud-Sud-Est 4 km/h
Temperatura: 28°C
Heat Index: 31°C
Punto di Rugiada: 23°C
Umidità: 74%
Barometro: 1008 hPa
Nuvole: Qualche Nuvola
Visibilità: 10 km
Nuvole nel Dettaglio: Qualche Nuvola 2743 m
2020/08/04 19:20 LICC 041920Z 15002KT 9999 FEW090 28/23 Q1008
 
LIEE - Cagliari Elmas, It
Distanza dalla Stazione: 655 km
Ultimo Aggiornamento: Martedì 04 Agosto 2020 21:20 CEST
Qualche Nuvola
Qualche Nuvola
 Wind from Nord-Ovest
Vento: Nord-Ovest 30 km/h
Temperatura: 23°C
Punto di Rugiada: 13°C
Umidità: 53%
Barometro: 1011 hPa
Nuvole: Qualche Nuvola
Visibilità: 10 km
Nuvole nel Dettaglio: Qualche Nuvola 1219 m
2020/08/04 19:20 LIEE 041920Z 32016KT 9999 FEW040 23/13 Q1011
LIEO - Olbia, It
Distanza dalla Stazione: 463 km
Ultimo Aggiornamento: Martedì 04 Agosto 2020 21:20 CEST
Sereno
Sereno
 Wind from Ovest-Sud-Ovest
Vento: Ovest-Sud-Ovest 22 km/h
Temperatura: 24°C
Punto di Rugiada: 11°C
Umidità: 44%
Barometro: 1009 hPa
Nuvole: Sereno
Visibilità: 10 km
2020/08/04 19:20 LIEO 041920Z AUTO 25012KT 200V280 9999 NCD 24/11 Q1009
LICG - Pantelleria, It
Distanza dalla Stazione: 893 km
Ultimo Aggiornamento: Martedì 04 Agosto 2020 19:50 CEST
Dati non Recenti
Sereno
Sereno
 Wind from Ovest-Nord-Ovest
Vento: Ovest-Nord-Ovest 22 km/h
Temperatura: 25°C
Punto di Rugiada: 18°C
Umidità: 65%
Barometro: 1011 hPa
Condizioni: Sereno
Visibilità: superiore a 10 km
2020/08/04 17:50 LICG 041750Z 29012KT CAVOK 25/18 Q1011